sensor_id;sensor_type;location;lat;lon;timestamp;P1;durP1;ratioP1;P2;durP2;ratioP2
4758;SDS011;2393;50.560;12.636;2023-07-16T00:02:12;2.57;;;1.63;;
4758;SDS011;2393;50.560;12.636;2023-07-16T00:04:41;2.97;;;1.93;;
4758;SDS011;2393;50.560;12.636;2023-07-16T00:07:09;2.00;;;1.90;;
4758;SDS011;2393;50.560;12.636;2023-07-16T00:09:37;2.40;;;1.77;;
4758;SDS011;2393;50.560;12.636;2023-07-16T00:12:06;4.60;;;2.40;;
4758;SDS011;2393;50.560;12.636;2023-07-16T00:14:35;1.87;;;1.70;;
4758;SDS011;2393;50.560;12.636;2023-07-16T00:17:05;2.40;;;1.70;;
4758;SDS011;2393;50.560;12.636;2023-07-16T00:19:33;3.73;;;2.00;;
4758;SDS011;2393;50.560;12.636;2023-07-16T00:22:01;2.60;;;2.40;;
4758;SDS011;2393;50.560;12.636;2023-07-16T00:24:30;1.73;;;1.60;;
4758;SDS011;2393;50.560;12.636;2023-07-16T00:27:00;2.57;;;2.10;;
4758;SDS011;2393;50.560;12.636;2023-07-16T00:29:28;2.37;;;1.57;;
4758;SDS011;2393;50.560;12.636;2023-07-16T00:31:56;1.90;;;1.80;;
4758;SDS011;2393;50.560;12.636;2023-07-16T00:34:26;2.10;;;1.67;;
4758;SDS011;2393;50.560;12.636;2023-07-16T00:36:55;1.93;;;1.83;;
4758;SDS011;2393;50.560;12.636;2023-07-16T00:39:28;1.43;;;1.33;;
4758;SDS011;2393;50.560;12.636;2023-07-16T00:41:56;1.90;;;1.67;;
4758;SDS011;2393;50.560;12.636;2023-07-16T00:44:25;3.27;;;1.97;;
4758;SDS011;2393;50.560;12.636;2023-07-16T00:46:53;2.20;;;2.00;;
4758;SDS011;2393;50.560;12.636;2023-07-16T00:49:22;2.70;;;2.17;;
4758;SDS011;2393;50.560;12.636;2023-07-16T00:51:53;2.20;;;2.00;;
4758;SDS011;2393;50.560;12.636;2023-07-16T00:54:22;1.37;;;1.33;;
4758;SDS011;2393;50.560;12.636;2023-07-16T00:56:51;3.50;;;2.70;;
4758;SDS011;2393;50.560;12.636;2023-07-16T00:59:19;2.20;;;2.00;;
4758;SDS011;2393;50.560;12.636;2023-07-16T01:01:47;2.10;;;2.00;;
4758;SDS011;2393;50.560;12.636;2023-07-16T01:04:16;2.20;;;2.10;;
4758;SDS011;2393;50.560;12.636;2023-07-16T01:06:46;1.93;;;1.83;;
4758;SDS011;2393;50.560;12.636;2023-07-16T01:09:21;2.53;;;2.17;;
4758;SDS011;2393;50.560;12.636;2023-07-16T01:11:49;1.77;;;1.67;;
4758;SDS011;2393;50.560;12.636;2023-07-16T01:14:19;3.83;;;2.20;;
4758;SDS011;2393;50.560;12.636;2023-07-16T01:16:47;1.60;;;1.50;;
4758;SDS011;2393;50.560;12.636;2023-07-16T01:19:16;1.73;;;1.63;;
4758;SDS011;2393;50.560;12.636;2023-07-16T01:24:46;9.03;;;2.50;;
4758;SDS011;2393;50.560;12.636;2023-07-16T01:27:34;3.70;;;2.43;;
4758;SDS011;2393;50.560;12.636;2023-07-16T01:30:19;2.83;;;2.63;;
4758;SDS011;2393;50.560;12.636;2023-07-16T01:32:50;3.73;;;2.60;;
4758;SDS011;2393;50.560;12.636;2023-07-16T01:35:19;6.53;;;1.87;;
4758;SDS011;2393;50.560;12.636;2023-07-16T01:37:48;3.33;;;2.47;;
4758;SDS011;2393;50.560;12.636;2023-07-16T01:40:16;2.30;;;2.20;;
4758;SDS011;2393;50.560;12.636;2023-07-16T01:42:45;2.40;;;2.17;;
4758;SDS011;2393;50.560;12.636;2023-07-16T01:45:13;4.00;;;2.07;;
4758;SDS011;2393;50.560;12.636;2023-07-16T01:47:45;6.03;;;2.37;;
4758;SDS011;2393;50.560;12.636;2023-07-16T01:50:22;2.17;;;2.07;;
4758;SDS011;2393;50.560;12.636;2023-07-16T01:52:50;2.40;;;2.20;;
4758;SDS011;2393;50.560;12.636;2023-07-16T01:55:19;1.90;;;1.80;;
4758;SDS011;2393;50.560;12.636;2023-07-16T01:57:47;2.50;;;1.90;;
4758;SDS011;2393;50.560;12.636;2023-07-16T02:00:15;1.70;;;1.60;;
4758;SDS011;2393;50.560;12.636;2023-07-16T02:02:51;2.03;;;1.90;;
4758;SDS011;2393;50.560;12.636;2023-07-16T02:05:20;6.00;;;1.47;;
4758;SDS011;2393;50.560;12.636;2023-07-16T02:07:49;2.00;;;1.87;;
4758;SDS011;2393;50.560;12.636;2023-07-16T02:10:17;2.90;;;1.93;;
4758;SDS011;2393;50.560;12.636;2023-07-16T02:12:46;1.70;;;1.60;;
4758;SDS011;2393;50.560;12.636;2023-07-16T02:15:14;1.83;;;1.73;;
4758;SDS011;2393;50.560;12.636;2023-07-16T02:17:44;2.10;;;1.77;;
4758;SDS011;2393;50.560;12.636;2023-07-16T02:20:16;1.57;;;1.50;;
4758;SDS011;2393;50.560;12.636;2023-07-16T02:22:45;1.60;;;1.50;;
4758;SDS011;2393;50.560;12.636;2023-07-16T02:25:14;3.33;;;1.70;;
4758;SDS011;2393;50.560;12.636;2023-07-16T02:27:42;6.30;;;1.90;;
4758;SDS011;2393;50.560;12.636;2023-07-16T02:30:10;1.93;;;1.83;;
4758;SDS011;2393;50.560;12.636;2023-07-16T02:32:41;1.30;;;1.23;;
4758;SDS011;2393;50.560;12.636;2023-07-16T02:35:10;2.17;;;2.03;;
4758;SDS011;2393;50.560;12.636;2023-07-16T02:37:40;2.00;;;1.90;;
4758;SDS011;2393;50.560;12.636;2023-07-16T02:40:08;1.70;;;1.60;;
4758;SDS011;2393;50.560;12.636;2023-07-16T02:42:36;7.30;;;1.73;;
4758;SDS011;2393;50.560;12.636;2023-07-16T02:45:05;3.03;;;1.73;;
4758;SDS011;2393;50.560;12.636;2023-07-16T02:47:34;1.93;;;1.50;;
4758;SDS011;2393;50.560;12.636;2023-07-16T02:50:03;5.50;;;1.23;;
4758;SDS011;2393;50.560;12.636;2023-07-16T02:52:32;2.07;;;1.97;;
4758;SDS011;2393;50.560;12.636;2023-07-16T02:55:01;1.63;;;1.53;;
4758;SDS011;2393;50.560;12.636;2023-07-16T02:57:30;1.80;;;1.70;;
4758;SDS011;2393;50.560;12.636;2023-07-16T02:59:58;2.00;;;1.90;;
4758;SDS011;2393;50.560;12.636;2023-07-16T03:02:26;1.60;;;1.60;;
4758;SDS011;2393;50.560;12.636;2023-07-16T03:04:55;5.90;;;1.63;;
4758;SDS011;2393;50.560;12.636;2023-07-16T03:07:23;1.60;;;1.50;;
4758;SDS011;2393;50.560;12.636;2023-07-16T03:09:51;3.20;;;1.63;;
4758;SDS011;2393;50.560;12.636;2023-07-16T03:12:22;1.37;;;1.37;;
4758;SDS011;2393;50.560;12.636;2023-07-16T03:14:50;1.57;;;0.97;;
4758;SDS011;2393;50.560;12.636;2023-07-16T03:17:20;3.83;;;1.87;;
4758;SDS011;2393;50.560;12.636;2023-07-16T03:19:49;2.30;;;1.43;;
4758;SDS011;2393;50.560;12.636;2023-07-16T03:22:17;1.33;;;1.23;;
4758;SDS011;2393;50.560;12.636;2023-07-16T03:24:47;1.33;;;1.33;;
4758;SDS011;2393;50.560;12.636;2023-07-16T03:27:15;3.77;;;1.87;;
4758;SDS011;2393;50.560;12.636;2023-07-16T03:29:52;1.03;;;1.00;;
4758;SDS011;2393;50.560;12.636;2023-07-16T03:32:21;1.00;;;0.90;;
4758;SDS011;2393;50.560;12.636;2023-07-16T03:35:00;1.40;;;1.30;;
4758;SDS011;2393;50.560;12.636;2023-07-16T03:37:28;1.43;;;1.10;;
4758;SDS011;2393;50.560;12.636;2023-07-16T03:40:11;2.10;;;1.30;;
4758;SDS011;2393;50.560;12.636;2023-07-16T03:42:44;0.70;;;0.70;;
4758;SDS011;2393;50.560;12.636;2023-07-16T03:45:14;1.53;;;1.00;;
4758;SDS011;2393;50.560;12.636;2023-07-16T03:47:42;1.10;;;1.10;;
4758;SDS011;2393;50.560;12.636;2023-07-16T03:50:11;1.27;;;1.10;;
4758;SDS011;2393;50.560;12.636;2023-07-16T03:52:39;4.23;;;1.00;;
4758;SDS011;2393;50.560;12.636;2023-07-16T03:55:07;0.90;;;0.90;;
4758;SDS011;2393;50.560;12.636;2023-07-16T03:57:36;1.40;;;1.30;;
4758;SDS011;2393;50.560;12.636;2023-07-16T04:00:06;0.70;;;0.70;;
4758;SDS011;2393;50.560;12.636;2023-07-16T04:02:49;2.10;;;1.13;;
4758;SDS011;2393;50.560;12.636;2023-07-16T04:05:17;1.10;;;0.87;;
4758;SDS011;2393;50.560;12.636;2023-07-16T04:07:50;0.50;;;0.40;;
4758;SDS011;2393;50.560;12.636;2023-07-16T04:10:18;2.10;;;0.90;;
4758;SDS011;2393;50.560;12.636;2023-07-16T04:12:47;0.47;;;0.47;;
4758;SDS011;2393;50.560;12.636;2023-07-16T04:15:15;2.20;;;0.80;;
4758;SDS011;2393;50.560;12.636;2023-07-16T04:17:43;2.00;;;0.80;;
4758;SDS011;2393;50.560;12.636;2023-07-16T04:20:13;0.60;;;0.60;;
4758;SDS011;2393;50.560;12.636;2023-07-16T04:22:41;5.17;;;0.53;;
4758;SDS011;2393;50.560;12.636;2023-07-16T04:25:10;1.17;;;0.90;;
4758;SDS011;2393;50.560;12.636;2023-07-16T04:27:38;0.50;;;0.50;;
4758;SDS011;2393;50.560;12.636;2023-07-16T04:30:09;0.40;;;0.33;;
4758;SDS011;2393;50.560;12.636;2023-07-16T04:32:38;1.13;;;0.80;;
4758;SDS011;2393;50.560;12.636;2023-07-16T04:35:06;5.40;;;0.83;;
4758;SDS011;2393;50.560;12.636;2023-07-16T04:37:36;0.50;;;0.50;;
4758;SDS011;2393;50.560;12.636;2023-07-16T04:40:05;3.50;;;0.50;;
4758;SDS011;2393;50.560;12.636;2023-07-16T04:42:35;0.60;;;0.60;;
4758;SDS011;2393;50.560;12.636;2023-07-16T04:45:03;0.87;;;0.87;;
4758;SDS011;2393;50.560;12.636;2023-07-16T04:47:32;0.80;;;0.70;;
4758;SDS011;2393;50.560;12.636;2023-07-16T04:50:01;1.33;;;0.70;;
4758;SDS011;2393;50.560;12.636;2023-07-16T04:52:30;0.90;;;0.30;;
4758;SDS011;2393;50.560;12.636;2023-07-16T04:54:59;1.57;;;0.60;;
4758;SDS011;2393;50.560;12.636;2023-07-16T04:57:28;0.80;;;0.80;;
4758;SDS011;2393;50.560;12.636;2023-07-16T04:59:56;8.10;;;0.73;;
4758;SDS011;2393;50.560;12.636;2023-07-16T05:02:24;4.10;;;0.70;;
4758;SDS011;2393;50.560;12.636;2023-07-16T05:04:52;2.27;;;0.70;;
4758;SDS011;2393;50.560;12.636;2023-07-16T05:07:21;0.60;;;0.60;;
4758;SDS011;2393;50.560;12.636;2023-07-16T05:09:49;0.80;;;0.80;;
4758;SDS011;2393;50.560;12.636;2023-07-16T05:12:18;0.90;;;0.80;;
4758;SDS011;2393;50.560;12.636;2023-07-16T05:14:47;0.50;;;0.50;;
4758;SDS011;2393;50.560;12.636;2023-07-16T05:17:16;0.70;;;0.70;;
4758;SDS011;2393;50.560;12.636;2023-07-16T05:19:44;1.07;;;1.07;;
4758;SDS011;2393;50.560;12.636;2023-07-16T05:22:13;0.63;;;0.63;;
4758;SDS011;2393;50.560;12.636;2023-07-16T05:24:41;0.60;;;0.60;;
4758;SDS011;2393;50.560;12.636;2023-07-16T05:27:09;0.83;;;0.83;;
4758;SDS011;2393;50.560;12.636;2023-07-16T05:29:39;1.00;;;0.80;;
4758;SDS011;2393;50.560;12.636;2023-07-16T05:32:07;0.77;;;0.60;;
4758;SDS011;2393;50.560;12.636;2023-07-16T05:34:36;0.87;;;0.87;;
4758;SDS011;2393;50.560;12.636;2023-07-16T05:37:05;6.00;;;0.70;;
4758;SDS011;2393;50.560;12.636;2023-07-16T05:39:33;0.93;;;0.90;;
4758;SDS011;2393;50.560;12.636;2023-07-16T05:42:01;1.67;;;0.70;;
4758;SDS011;2393;50.560;12.636;2023-07-16T05:44:30;1.07;;;1.07;;
4758;SDS011;2393;50.560;12.636;2023-07-16T05:47:00;3.80;;;1.30;;
4758;SDS011;2393;50.560;12.636;2023-07-16T05:49:28;1.73;;;1.00;;
4758;SDS011;2393;50.560;12.636;2023-07-16T05:51:56;2.50;;;0.93;;
4758;SDS011;2393;50.560;12.636;2023-07-16T05:54:24;9.50;;;0.80;;
4758;SDS011;2393;50.560;12.636;2023-07-16T05:56:53;1.10;;;0.90;;
4758;SDS011;2393;50.560;12.636;2023-07-16T05:59:21;0.80;;;0.80;;
4758;SDS011;2393;50.560;12.636;2023-07-16T06:01:49;1.03;;;0.93;;
4758;SDS011;2393;50.560;12.636;2023-07-16T06:04:19;1.20;;;1.10;;
4758;SDS011;2393;50.560;12.636;2023-07-16T06:06:47;0.73;;;0.73;;
4758;SDS011;2393;50.560;12.636;2023-07-16T06:09:18;0.80;;;0.80;;
4758;SDS011;2393;50.560;12.636;2023-07-16T06:11:47;1.23;;;1.17;;
4758;SDS011;2393;50.560;12.636;2023-07-16T06:14:15;1.67;;;0.90;;
4758;SDS011;2393;50.560;12.636;2023-07-16T06:16:44;0.83;;;0.83;;
4758;SDS011;2393;50.560;12.636;2023-07-16T06:19:12;1.67;;;1.20;;
4758;SDS011;2393;50.560;12.636;2023-07-16T06:21:42;0.90;;;0.90;;
4758;SDS011;2393;50.560;12.636;2023-07-16T06:24:10;1.10;;;1.00;;
4758;SDS011;2393;50.560;12.636;2023-07-16T06:26:42;3.03;;;0.90;;
4758;SDS011;2393;50.560;12.636;2023-07-16T06:29:11;1.00;;;1.00;;
4758;SDS011;2393;50.560;12.636;2023-07-16T06:31:41;0.77;;;0.77;;
4758;SDS011;2393;50.560;12.636;2023-07-16T06:34:13;0.77;;;0.63;;
4758;SDS011;2393;50.560;12.636;2023-07-16T06:36:43;1.30;;;1.20;;
4758;SDS011;2393;50.560;12.636;2023-07-16T06:39:11;1.17;;;1.07;;
4758;SDS011;2393;50.560;12.636;2023-07-16T06:41:42;1.33;;;1.00;;
4758;SDS011;2393;50.560;12.636;2023-07-16T06:44:11;3.40;;;0.80;;
4758;SDS011;2393;50.560;12.636;2023-07-16T06:46:39;3.17;;;1.27;;
4758;SDS011;2393;50.560;12.636;2023-07-16T06:49:08;1.17;;;1.00;;
4758;SDS011;2393;50.560;12.636;2023-07-16T06:51:36;2.30;;;1.00;;
4758;SDS011;2393;50.560;12.636;2023-07-16T06:54:06;5.17;;;1.20;;
4758;SDS011;2393;50.560;12.636;2023-07-16T06:56:34;1.40;;;1.23;;
4758;SDS011;2393;50.560;12.636;2023-07-16T06:59:02;1.07;;;1.03;;
4758;SDS011;2393;50.560;12.636;2023-07-16T07:01:31;0.93;;;0.93;;
4758;SDS011;2393;50.560;12.636;2023-07-16T07:04:00;1.47;;;1.20;;
4758;SDS011;2393;50.560;12.636;2023-07-16T07:06:28;4.53;;;1.63;;
4758;SDS011;2393;50.560;12.636;2023-07-16T07:08:56;2.33;;;1.00;;
4758;SDS011;2393;50.560;12.636;2023-07-16T07:11:26;4.53;;;1.27;;
4758;SDS011;2393;50.560;12.636;2023-07-16T07:13:55;3.90;;;1.13;;
4758;SDS011;2393;50.560;12.636;2023-07-16T07:16:24;0.50;;;0.50;;
4758;SDS011;2393;50.560;12.636;2023-07-16T07:18:52;2.23;;;1.10;;
4758;SDS011;2393;50.560;12.636;2023-07-16T07:21:21;2.20;;;1.20;;
4758;SDS011;2393;50.560;12.636;2023-07-16T07:23:49;5.23;;;1.30;;
4758;SDS011;2393;50.560;12.636;2023-07-16T07:26:17;1.23;;;1.10;;
4758;SDS011;2393;50.560;12.636;2023-07-16T07:28:47;2.10;;;1.30;;
4758;SDS011;2393;50.560;12.636;2023-07-16T07:31:16;3.00;;;0.90;;
4758;SDS011;2393;50.560;12.636;2023-07-16T07:33:44;2.57;;;1.20;;
4758;SDS011;2393;50.560;12.636;2023-07-16T07:36:13;3.77;;;1.50;;
4758;SDS011;2393;50.560;12.636;2023-07-16T07:38:42;1.60;;;1.50;;
4758;SDS011;2393;50.560;12.636;2023-07-16T07:41:10;1.93;;;1.20;;
4758;SDS011;2393;50.560;12.636;2023-07-16T07:43:40;0.93;;;0.93;;
4758;SDS011;2393;50.560;12.636;2023-07-16T07:46:10;3.07;;;1.20;;
4758;SDS011;2393;50.560;12.636;2023-07-16T07:48:41;2.40;;;1.50;;
4758;SDS011;2393;50.560;12.636;2023-07-16T07:51:09;4.57;;;1.10;;
4758;SDS011;2393;50.560;12.636;2023-07-16T07:53:38;2.40;;;1.20;;
4758;SDS011;2393;50.560;12.636;2023-07-16T07:56:06;1.50;;;0.93;;
4758;SDS011;2393;50.560;12.636;2023-07-16T07:58:35;1.43;;;1.27;;
4758;SDS011;2393;50.560;12.636;2023-07-16T08:01:04;7.90;;;1.00;;
4758;SDS011;2393;50.560;12.636;2023-07-16T08:03:34;3.63;;;1.40;;
4758;SDS011;2393;50.560;12.636;2023-07-16T08:06:03;1.40;;;1.23;;
4758;SDS011;2393;50.560;12.636;2023-07-16T08:08:31;1.70;;;1.10;;
4758;SDS011;2393;50.560;12.636;2023-07-16T08:11:04;1.17;;;1.00;;
4758;SDS011;2393;50.560;12.636;2023-07-16T08:13:32;1.93;;;1.10;;
4758;SDS011;2393;50.560;12.636;2023-07-16T08:16:00;1.87;;;1.70;;
4758;SDS011;2393;50.560;12.636;2023-07-16T08:18:29;1.60;;;0.80;;
4758;SDS011;2393;50.560;12.636;2023-07-16T08:20:58;3.43;;;1.40;;
4758;SDS011;2393;50.560;12.636;2023-07-16T08:23:27;7.30;;;1.00;;
4758;SDS011;2393;50.560;12.636;2023-07-16T08:25:55;4.67;;;1.43;;
4758;SDS011;2393;50.560;12.636;2023-07-16T08:28:23;4.17;;;1.27;;
4758;SDS011;2393;50.560;12.636;2023-07-16T08:30:51;1.67;;;1.17;;
4758;SDS011;2393;50.560;12.636;2023-07-16T08:33:19;5.23;;;1.67;;
4758;SDS011;2393;50.560;12.636;2023-07-16T08:35:48;1.50;;;1.40;;
4758;SDS011;2393;50.560;12.636;2023-07-16T08:38:17;1.33;;;0.83;;
4758;SDS011;2393;50.560;12.636;2023-07-16T08:40:46;4.03;;;0.80;;
4758;SDS011;2393;50.560;12.636;2023-07-16T08:43:15;2.30;;;0.93;;
4758;SDS011;2393;50.560;12.636;2023-07-16T08:45:45;2.93;;;1.43;;
4758;SDS011;2393;50.560;12.636;2023-07-16T08:48:16;2.20;;;1.10;;
4758;SDS011;2393;50.560;12.636;2023-07-16T08:50:45;1.07;;;1.00;;
4758;SDS011;2393;50.560;12.636;2023-07-16T08:53:14;2.23;;;1.07;;
4758;SDS011;2393;50.560;12.636;2023-07-16T08:55:45;4.30;;;1.33;;
4758;SDS011;2393;50.560;12.636;2023-07-16T08:58:17;1.53;;;0.97;;
4758;SDS011;2393;50.560;12.636;2023-07-16T09:00:48;1.03;;;0.80;;
4758;SDS011;2393;50.560;12.636;2023-07-16T09:03:17;2.60;;;0.80;;
4758;SDS011;2393;50.560;12.636;2023-07-16T09:05:45;1.87;;;0.90;;
4758;SDS011;2393;50.560;12.636;2023-07-16T09:08:14;2.07;;;1.10;;
4758;SDS011;2393;50.560;12.636;2023-07-16T09:10:53;0.70;;;0.70;;
4758;SDS011;2393;50.560;12.636;2023-07-16T09:13:22;1.23;;;1.00;;
4758;SDS011;2393;50.560;12.636;2023-07-16T09:15:53;3.20;;;1.10;;
4758;SDS011;2393;50.560;12.636;2023-07-16T09:18:23;4.00;;;1.73;;
4758;SDS011;2393;50.560;12.636;2023-07-16T09:20:56;1.97;;;1.10;;
4758;SDS011;2393;50.560;12.636;2023-07-16T09:23:25;1.27;;;0.93;;
4758;SDS011;2393;50.560;12.636;2023-07-16T09:25:55;7.40;;;1.30;;
4758;SDS011;2393;50.560;12.636;2023-07-16T09:28:25;1.63;;;1.37;;
4758;SDS011;2393;50.560;12.636;2023-07-16T09:30:54;2.60;;;1.10;;
4758;SDS011;2393;50.560;12.636;2023-07-16T09:33:22;2.07;;;1.03;;
4758;SDS011;2393;50.560;12.636;2023-07-16T09:35:53;1.63;;;0.90;;
4758;SDS011;2393;50.560;12.636;2023-07-16T09:38:21;1.00;;;0.90;;
4758;SDS011;2393;50.560;12.636;2023-07-16T09:40:51;1.60;;;1.43;;
4758;SDS011;2393;50.560;12.636;2023-07-16T09:43:21;2.30;;;0.87;;
4758;SDS011;2393;50.560;12.636;2023-07-16T09:45:49;1.20;;;1.10;;
4758;SDS011;2393;50.560;12.636;2023-07-16T09:48:18;4.30;;;0.83;;
4758;SDS011;2393;50.560;12.636;2023-07-16T09:50:49;3.33;;;1.40;;
4758;SDS011;2393;50.560;12.636;2023-07-16T09:53:20;5.20;;;1.00;;
4758;SDS011;2393;50.560;12.636;2023-07-16T09:55:51;3.03;;;0.90;;
4758;SDS011;2393;50.560;12.636;2023-07-16T09:58:22;2.63;;;1.07;;
4758;SDS011;2393;50.560;12.636;2023-07-16T10:00:52;1.57;;;0.87;;
4758;SDS011;2393;50.560;12.636;2023-07-16T10:03:20;3.03;;;0.70;;
4758;SDS011;2393;50.560;12.636;2023-07-16T10:05:49;1.70;;;1.10;;
4758;SDS011;2393;50.560;12.636;2023-07-16T10:08:18;0.93;;;0.93;;
4758;SDS011;2393;50.560;12.636;2023-07-16T10:10:48;1.20;;;1.10;;
4758;SDS011;2393;50.560;12.636;2023-07-16T10:13:23;9.33;;;1.53;;
4758;SDS011;2393;50.560;12.636;2023-07-16T10:15:51;2.43;;;0.80;;
4758;SDS011;2393;50.560;12.636;2023-07-16T10:18:23;5.67;;;1.30;;
4758;SDS011;2393;50.560;12.636;2023-07-16T10:20:54;1.60;;;1.23;;
4758;SDS011;2393;50.560;12.636;2023-07-16T10:23:35;2.07;;;1.67;;
4758;SDS011;2393;50.560;12.636;2023-07-16T10:26:05;2.63;;;1.60;;
4758;SDS011;2393;50.560;12.636;2023-07-16T10:28:35;3.33;;;1.40;;
4758;SDS011;2393;50.560;12.636;2023-07-16T10:31:04;1.33;;;1.10;;
4758;SDS011;2393;50.560;12.636;2023-07-16T10:33:34;1.13;;;1.03;;
4758;SDS011;2393;50.560;12.636;2023-07-16T10:36:04;1.23;;;1.00;;
4758;SDS011;2393;50.560;12.636;2023-07-16T10:38:40;4.87;;;1.33;;
4758;SDS011;2393;50.560;12.636;2023-07-16T10:41:09;1.60;;;1.17;;
4758;SDS011;2393;50.560;12.636;2023-07-16T10:43:39;8.50;;;2.00;;
4758;SDS011;2393;50.560;12.636;2023-07-16T10:46:08;3.53;;;1.53;;
4758;SDS011;2393;50.560;12.636;2023-07-16T10:48:36;8.10;;;1.67;;
4758;SDS011;2393;50.560;12.636;2023-07-16T10:51:04;1.13;;;0.90;;
4758;SDS011;2393;50.560;12.636;2023-07-16T10:53:33;4.50;;;1.57;;
4758;SDS011;2393;50.560;12.636;2023-07-16T10:56:01;2.10;;;1.10;;
4758;SDS011;2393;50.560;12.636;2023-07-16T10:58:29;2.73;;;1.10;;
4758;SDS011;2393;50.560;12.636;2023-07-16T11:00:58;2.87;;;0.83;;
4758;SDS011;2393;50.560;12.636;2023-07-16T11:03:27;3.53;;;1.10;;
4758;SDS011;2393;50.560;12.636;2023-07-16T11:05:56;1.43;;;1.33;;
4758;SDS011;2393;50.560;12.636;2023-07-16T11:08:24;4.50;;;1.20;;
4758;SDS011;2393;50.560;12.636;2023-07-16T11:10:53;2.57;;;1.20;;
4758;SDS011;2393;50.560;12.636;2023-07-16T11:13:26;3.80;;;1.23;;
4758;SDS011;2393;50.560;12.636;2023-07-16T11:15:54;4.63;;;1.00;;
4758;SDS011;2393;50.560;12.636;2023-07-16T11:18:24;2.03;;;1.00;;
4758;SDS011;2393;50.560;12.636;2023-07-16T11:20:53;1.43;;;1.33;;
4758;SDS011;2393;50.560;12.636;2023-07-16T11:23:21;1.53;;;0.80;;
4758;SDS011;2393;50.560;12.636;2023-07-16T11:25:51;3.37;;;1.30;;
4758;SDS011;2393;50.560;12.636;2023-07-16T11:28:19;5.50;;;1.47;;
4758;SDS011;2393;50.560;12.636;2023-07-16T11:30:48;1.07;;;0.67;;
4758;SDS011;2393;50.560;12.636;2023-07-16T11:33:16;2.87;;;1.43;;
4758;SDS011;2393;50.560;12.636;2023-07-16T11:35:46;4.10;;;1.20;;
4758;SDS011;2393;50.560;12.636;2023-07-16T11:38:17;5.30;;;1.30;;
4758;SDS011;2393;50.560;12.636;2023-07-16T11:40:45;3.53;;;1.10;;
4758;SDS011;2393;50.560;12.636;2023-07-16T11:43:14;3.03;;;1.00;;
4758;SDS011;2393;50.560;12.636;2023-07-16T11:45:46;2.30;;;1.00;;
4758;SDS011;2393;50.560;12.636;2023-07-16T11:48:15;0.83;;;0.83;;
4758;SDS011;2393;50.560;12.636;2023-07-16T11:50:45;3.20;;;1.20;;
4758;SDS011;2393;50.560;12.636;2023-07-16T11:53:13;9.60;;;0.67;;
4758;SDS011;2393;50.560;12.636;2023-07-16T11:55:41;3.80;;;1.07;;
4758;SDS011;2393;50.560;12.636;2023-07-16T11:58:09;2.33;;;1.37;;
4758;SDS011;2393;50.560;12.636;2023-07-16T12:00:38;1.00;;;0.60;;
4758;SDS011;2393;50.560;12.636;2023-07-16T12:03:06;7.50;;;1.33;;
4758;SDS011;2393;50.560;12.636;2023-07-16T12:05:34;4.60;;;1.03;;
4758;SDS011;2393;50.560;12.636;2023-07-16T12:08:18;4.93;;;1.07;;
4758;SDS011;2393;50.560;12.636;2023-07-16T12:10:47;3.23;;;0.90;;
4758;SDS011;2393;50.560;12.636;2023-07-16T12:13:15;2.23;;;1.03;;
4758;SDS011;2393;50.560;12.636;2023-07-16T12:15:43;0.90;;;0.80;;
4758;SDS011;2393;50.560;12.636;2023-07-16T12:18:12;3.13;;;0.90;;
4758;SDS011;2393;50.560;12.636;2023-07-16T12:20:40;2.23;;;1.00;;
4758;SDS011;2393;50.560;12.636;2023-07-16T12:23:08;2.40;;;1.13;;
4758;SDS011;2393;50.560;12.636;2023-07-16T12:25:38;1.93;;;0.67;;
4758;SDS011;2393;50.560;12.636;2023-07-16T12:28:06;0.97;;;0.80;;
4758;SDS011;2393;50.560;12.636;2023-07-16T12:30:34;1.50;;;0.90;;
4758;SDS011;2393;50.560;12.636;2023-07-16T12:33:02;2.63;;;1.20;;
4758;SDS011;2393;50.560;12.636;2023-07-16T12:35:31;2.23;;;1.30;;
4758;SDS011;2393;50.560;12.636;2023-07-16T12:37:59;2.00;;;0.60;;
4758;SDS011;2393;50.560;12.636;2023-07-16T12:40:29;2.20;;;1.23;;
4758;SDS011;2393;50.560;12.636;2023-07-16T12:42:58;2.73;;;0.97;;
4758;SDS011;2393;50.560;12.636;2023-07-16T12:45:26;2.60;;;1.10;;
4758;SDS011;2393;50.560;12.636;2023-07-16T12:47:55;0.80;;;0.80;;
4758;SDS011;2393;50.560;12.636;2023-07-16T12:50:24;0.90;;;0.90;;
4758;SDS011;2393;50.560;12.636;2023-07-16T12:52:54;8.30;;;1.27;;
4758;SDS011;2393;50.560;12.636;2023-07-16T12:55:22;5.70;;;0.93;;
4758;SDS011;2393;50.560;12.636;2023-07-16T12:57:51;1.87;;;0.70;;
4758;SDS011;2393;50.560;12.636;2023-07-16T13:00:20;2.73;;;1.17;;
4758;SDS011;2393;50.560;12.636;2023-07-16T13:02:48;1.47;;;1.30;;
4758;SDS011;2393;50.560;12.636;2023-07-16T13:05:17;2.37;;;1.23;;
4758;SDS011;2393;50.560;12.636;2023-07-16T13:07:45;2.50;;;1.20;;
4758;SDS011;2393;50.560;12.636;2023-07-16T13:10:13;1.70;;;0.97;;
4758;SDS011;2393;50.560;12.636;2023-07-16T13:12:49;6.00;;;1.13;;
4758;SDS011;2393;50.560;12.636;2023-07-16T13:15:18;1.40;;;0.73;;
4758;SDS011;2393;50.560;12.636;2023-07-16T13:17:47;4.63;;;1.40;;
4758;SDS011;2393;50.560;12.636;2023-07-16T13:20:17;1.27;;;0.80;;
4758;SDS011;2393;50.560;12.636;2023-07-16T13:22:45;1.30;;;1.20;;
4758;SDS011;2393;50.560;12.636;2023-07-16T13:25:13;2.60;;;1.10;;
4758;SDS011;2393;50.560;12.636;2023-07-16T13:27:42;4.63;;;1.30;;
4758;SDS011;2393;50.560;12.636;2023-07-16T13:30:10;3.30;;;1.07;;
4758;SDS011;2393;50.560;12.636;2023-07-16T13:32:40;1.63;;;0.93;;
4758;SDS011;2393;50.560;12.636;2023-07-16T13:35:09;2.83;;;1.07;;
4758;SDS011;2393;50.560;12.636;2023-07-16T13:37:38;1.80;;;1.07;;
4758;SDS011;2393;50.560;12.636;2023-07-16T13:40:06;5.23;;;1.10;;
4758;SDS011;2393;50.560;12.636;2023-07-16T13:42:35;2.60;;;1.17;;
4758;SDS011;2393;50.560;12.636;2023-07-16T13:45:04;2.40;;;1.53;;
4758;SDS011;2393;50.560;12.636;2023-07-16T13:47:33;3.80;;;1.27;;
4758;SDS011;2393;50.560;12.636;2023-07-16T13:50:01;2.57;;;1.10;;
4758;SDS011;2393;50.560;12.636;2023-07-16T13:52:31;1.90;;;0.77;;
4758;SDS011;2393;50.560;12.636;2023-07-16T13:55:00;1.90;;;1.10;;
4758;SDS011;2393;50.560;12.636;2023-07-16T13:57:28;2.80;;;1.10;;
4758;SDS011;2393;50.560;12.636;2023-07-16T13:59:56;5.27;;;1.33;;
4758;SDS011;2393;50.560;12.636;2023-07-16T14:02:24;2.10;;;0.83;;
4758;SDS011;2393;50.560;12.636;2023-07-16T14:04:53;5.67;;;1.20;;
4758;SDS011;2393;50.560;12.636;2023-07-16T14:07:21;1.10;;;0.80;;
4758;SDS011;2393;50.560;12.636;2023-07-16T14:09:50;1.63;;;0.90;;
4758;SDS011;2393;50.560;12.636;2023-07-16T14:12:18;1.37;;;0.80;;
4758;SDS011;2393;50.560;12.636;2023-07-16T14:14:47;2.93;;;0.70;;
4758;SDS011;2393;50.560;12.636;2023-07-16T14:17:15;4.83;;;1.20;;
4758;SDS011;2393;50.560;12.636;2023-07-16T14:19:43;3.13;;;0.90;;
4758;SDS011;2393;50.560;12.636;2023-07-16T14:22:11;3.17;;;1.10;;
4758;SDS011;2393;50.560;12.636;2023-07-16T14:24:42;1.90;;;1.00;;
4758;SDS011;2393;50.560;12.636;2023-07-16T14:27:12;2.20;;;1.00;;
4758;SDS011;2393;50.560;12.636;2023-07-16T14:29:40;2.60;;;1.33;;
4758;SDS011;2393;50.560;12.636;2023-07-16T14:32:28;4.40;;;1.00;;
4758;SDS011;2393;50.560;12.636;2023-07-16T14:34:58;5.83;;;1.37;;
4758;SDS011;2393;50.560;12.636;2023-07-16T14:37:27;3.93;;;1.40;;
4758;SDS011;2393;50.560;12.636;2023-07-16T14:39:55;1.57;;;0.87;;
4758;SDS011;2393;50.560;12.636;2023-07-16T14:42:25;2.67;;;1.20;;
4758;SDS011;2393;50.560;12.636;2023-07-16T14:44:53;3.93;;;0.87;;
4758;SDS011;2393;50.560;12.636;2023-07-16T14:47:21;2.63;;;1.00;;
4758;SDS011;2393;50.560;12.636;2023-07-16T14:49:50;3.03;;;0.97;;
4758;SDS011;2393;50.560;12.636;2023-07-16T14:52:18;2.20;;;1.00;;
4758;SDS011;2393;50.560;12.636;2023-07-16T14:54:46;2.60;;;1.40;;
4758;SDS011;2393;50.560;12.636;2023-07-16T14:57:15;1.73;;;1.00;;
4758;SDS011;2393;50.560;12.636;2023-07-16T14:59:45;2.60;;;1.17;;
4758;SDS011;2393;50.560;12.636;2023-07-16T15:02:13;8.07;;;3.13;;
4758;SDS011;2393;50.560;12.636;2023-07-16T15:04:41;2.47;;;1.20;;
4758;SDS011;2393;50.560;12.636;2023-07-16T15:07:09;4.23;;;1.13;;
4758;SDS011;2393;50.560;12.636;2023-07-16T15:09:37;3.30;;;1.27;;
4758;SDS011;2393;50.560;12.636;2023-07-16T15:12:08;2.50;;;1.20;;
4758;SDS011;2393;50.560;12.636;2023-07-16T15:14:36;3.83;;;1.50;;
4758;SDS011;2393;50.560;12.636;2023-07-16T15:17:06;0.97;;;0.97;;